sensor_id;sensor_type;location;lat;lon;timestamp;temperature;humidity
2647;DHT22;1333;50.958;6.770;2022-12-08T00:01:37;5.10;99.90
2647;DHT22;1333;50.958;6.770;2022-12-08T00:04:04;5.10;99.90
2647;DHT22;1333;50.958;6.770;2022-12-08T00:06:34;5.00;99.90
2647;DHT22;1333;50.958;6.770;2022-12-08T00:09:22;5.00;99.90
2647;DHT22;1333;50.958;6.770;2022-12-08T00:14:21;5.10;99.90
2647;DHT22;1333;50.958;6.770;2022-12-08T00:16:47;5.10;99.90
2647;DHT22;1333;50.958;6.770;2022-12-08T00:19:12;5.10;99.90
2647;DHT22;1333;50.958;6.770;2022-12-08T00:21:38;5.10;99.90
2647;DHT22;1333;50.958;6.770;2022-12-08T00:24:04;5.10;99.90
2647;DHT22;1333;50.958;6.770;2022-12-08T00:26:29;5.10;99.90
2647;DHT22;1333;50.958;6.770;2022-12-08T00:28:55;5.10;99.90
2647;DHT22;1333;50.958;6.770;2022-12-08T00:31:20;5.10;99.90
2647;DHT22;1333;50.958;6.770;2022-12-08T00:33:46;5.10;99.90
2647;DHT22;1333;50.958;6.770;2022-12-08T00:36:13;5.20;99.90
2647;DHT22;1333;50.958;6.770;2022-12-08T00:38:39;5.10;99.90
2647;DHT22;1333;50.958;6.770;2022-12-08T00:41:12;5.10;99.90
2647;DHT22;1333;50.958;6.770;2022-12-08T00:43:38;5.10;99.90
2647;DHT22;1333;50.958;6.770;2022-12-08T00:46:03;5.00;99.90
2647;DHT22;1333;50.958;6.770;2022-12-08T00:48:29;5.00;99.90
2647;DHT22;1333;50.958;6.770;2022-12-08T00:50:55;5.00;99.90
2647;DHT22;1333;50.958;6.770;2022-12-08T00:53:20;5.00;99.90
2647;DHT22;1333;50.958;6.770;2022-12-08T00:55:46;5.00;99.90
2647;DHT22;1333;50.958;6.770;2022-12-08T00:58:11;5.00;99.90
2647;DHT22;1333;50.958;6.770;2022-12-08T01:00:39;5.00;99.90
2647;DHT22;1333;50.958;6.770;2022-12-08T01:03:05;4.90;99.90
2647;DHT22;1333;50.958;6.770;2022-12-08T01:05:31;4.90;99.90
2647;DHT22;1333;50.958;6.770;2022-12-08T01:07:56;4.90;99.90
2647;DHT22;1333;50.958;6.770;2022-12-08T01:10:22;5.00;99.90
2647;DHT22;1333;50.958;6.770;2022-12-08T01:12:47;5.00;99.90
2647;DHT22;1333;50.958;6.770;2022-12-08T01:15:13;5.00;99.90
2647;DHT22;1333;50.958;6.770;2022-12-08T01:17:38;5.00;99.90
2647;DHT22;1333;50.958;6.770;2022-12-08T01:20:04;5.10;99.90
2647;DHT22;1333;50.958;6.770;2022-12-08T01:22:32;5.00;99.90
2647;DHT22;1333;50.958;6.770;2022-12-08T01:24:58;5.00;99.90
2647;DHT22;1333;50.958;6.770;2022-12-08T01:27:23;5.10;99.90
2647;DHT22;1333;50.958;6.770;2022-12-08T01:29:49;5.10;99.90
2647;DHT22;1333;50.958;6.770;2022-12-08T01:32:14;5.00;99.90
2647;DHT22;1333;50.958;6.770;2022-12-08T01:34:40;5.00;99.90
2647;DHT22;1333;50.958;6.770;2022-12-08T01:37:06;5.00;99.90
2647;DHT22;1333;50.958;6.770;2022-12-08T01:39:31;5.00;99.90
2647;DHT22;1333;50.958;6.770;2022-12-08T01:41:57;5.10;99.90
2647;DHT22;1333;50.958;6.770;2022-12-08T01:46:49;5.20;99.90
2647;DHT22;1333;50.958;6.770;2022-12-08T01:49:17;5.20;99.90
2647;DHT22;1333;50.958;6.770;2022-12-08T01:51:57;5.20;99.90
2647;DHT22;1333;50.958;6.770;2022-12-08T01:54:28;5.20;99.90
2647;DHT22;1333;50.958;6.770;2022-12-08T01:59:21;5.30;99.90
2647;DHT22;1333;50.958;6.770;2022-12-08T02:01:48;5.30;99.90
2647;DHT22;1333;50.958;6.770;2022-12-08T02:04:13;5.30;99.90
2647;DHT22;1333;50.958;6.770;2022-12-08T02:06:41;5.30;99.90
2647;DHT22;1333;50.958;6.770;2022-12-08T02:09:07;5.30;99.90
2647;DHT22;1333;50.958;6.770;2022-12-08T02:11:33;5.40;99.90
2647;DHT22;1333;50.958;6.770;2022-12-08T02:13:59;5.40;99.90
2647;DHT22;1333;50.958;6.770;2022-12-08T02:19:55;5.40;99.90
2647;DHT22;1333;50.958;6.770;2022-12-08T02:36:22;5.30;99.90
2647;DHT22;1333;50.958;6.770;2022-12-08T02:39:02;5.30;99.90
2647;DHT22;1333;50.958;6.770;2022-12-08T02:41:58;5.20;99.90
2647;DHT22;1333;50.958;6.770;2022-12-08T02:44:27;5.30;99.90
2647;DHT22;1333;50.958;6.770;2022-12-08T02:47:01;5.30;99.90
2647;DHT22;1333;50.958;6.770;2022-12-08T02:49:33;5.20;99.90
2647;DHT22;1333;50.958;6.770;2022-12-08T02:55:02;5.30;99.90
2647;DHT22;1333;50.958;6.770;2022-12-08T03:10:58;5.40;99.90
2647;DHT22;1333;50.958;6.770;2022-12-08T03:13:33;5.40;99.90
2647;DHT22;1333;50.958;6.770;2022-12-08T03:16:03;5.40;99.90
2647;DHT22;1333;50.958;6.770;2022-12-08T03:18:31;5.40;99.90
2647;DHT22;1333;50.958;6.770;2022-12-08T03:20:58;5.40;99.90
2647;DHT22;1333;50.958;6.770;2022-12-08T03:23:23;5.40;99.90
2647;DHT22;1333;50.958;6.770;2022-12-08T03:26:10;5.40;99.90
2647;DHT22;1333;50.958;6.770;2022-12-08T03:28:37;5.40;99.90
2647;DHT22;1333;50.958;6.770;2022-12-08T03:31:06;5.40;99.90
2647;DHT22;1333;50.958;6.770;2022-12-08T03:33:40;5.40;99.90
2647;DHT22;1333;50.958;6.770;2022-12-08T03:36:08;5.40;99.90
2647;DHT22;1333;50.958;6.770;2022-12-08T03:38:43;5.40;99.90
2647;DHT22;1333;50.958;6.770;2022-12-08T03:41:10;5.30;99.90
2647;DHT22;1333;50.958;6.770;2022-12-08T03:43:50;5.30;99.90
2647;DHT22;1333;50.958;6.770;2022-12-08T03:46:17;5.30;99.90
2647;DHT22;1333;50.958;6.770;2022-12-08T03:48:43;5.30;99.90
2647;DHT22;1333;50.958;6.770;2022-12-08T03:51:08;5.30;99.90
2647;DHT22;1333;50.958;6.770;2022-12-08T03:53:34;5.30;99.90
2647;DHT22;1333;50.958;6.770;2022-12-08T03:55:59;5.30;99.90
2647;DHT22;1333;50.958;6.770;2022-12-08T03:58:25;5.30;99.90
2647;DHT22;1333;50.958;6.770;2022-12-08T04:00:51;5.30;99.90
2647;DHT22;1333;50.958;6.770;2022-12-08T04:03:16;5.20;99.90
2647;DHT22;1333;50.958;6.770;2022-12-08T04:05:42;5.20;99.90
2647;DHT22;1333;50.958;6.770;2022-12-08T04:08:08;5.30;99.90
2647;DHT22;1333;50.958;6.770;2022-12-08T04:10:33;5.30;99.90
2647;DHT22;1333;50.958;6.770;2022-12-08T04:12:59;5.30;99.90
2647;DHT22;1333;50.958;6.770;2022-12-08T04:15:24;5.30;99.90
2647;DHT22;1333;50.958;6.770;2022-12-08T04:17:50;5.30;99.90
2647;DHT22;1333;50.958;6.770;2022-12-08T04:20:15;5.30;99.90
2647;DHT22;1333;50.958;6.770;2022-12-08T04:22:40;5.20;99.90
2647;DHT22;1333;50.958;6.770;2022-12-08T04:25:06;5.20;99.90
2647;DHT22;1333;50.958;6.770;2022-12-08T04:27:32;5.20;99.90
2647;DHT22;1333;50.958;6.770;2022-12-08T04:29:57;5.20;99.90
2647;DHT22;1333;50.958;6.770;2022-12-08T04:32:23;5.10;99.90
2647;DHT22;1333;50.958;6.770;2022-12-08T04:34:48;5.10;99.90
2647;DHT22;1333;50.958;6.770;2022-12-08T04:37:14;5.10;99.90
2647;DHT22;1333;50.958;6.770;2022-12-08T04:39:39;5.00;99.90
2647;DHT22;1333;50.958;6.770;2022-12-08T04:42:05;5.00;99.90
2647;DHT22;1333;50.958;6.770;2022-12-08T04:44:30;4.90;99.90
2647;DHT22;1333;50.958;6.770;2022-12-08T04:46:56;4.90;99.90
2647;DHT22;1333;50.958;6.770;2022-12-08T04:49:21;4.80;99.90
2647;DHT22;1333;50.958;6.770;2022-12-08T04:51:47;4.90;99.90
2647;DHT22;1333;50.958;6.770;2022-12-08T04:54:13;4.90;99.90
2647;DHT22;1333;50.958;6.770;2022-12-08T04:56:39;4.80;99.90
2647;DHT22;1333;50.958;6.770;2022-12-08T04:59:04;4.90;99.90
2647;DHT22;1333;50.958;6.770;2022-12-08T05:01:30;4.90;99.90
2647;DHT22;1333;50.958;6.770;2022-12-08T05:03:55;4.90;99.90
2647;DHT22;1333;50.958;6.770;2022-12-08T05:06:21;4.80;99.90
2647;DHT22;1333;50.958;6.770;2022-12-08T05:08:47;4.80;99.90
2647;DHT22;1333;50.958;6.770;2022-12-08T05:11:12;4.80;99.90
2647;DHT22;1333;50.958;6.770;2022-12-08T05:13:38;4.80;99.90
2647;DHT22;1333;50.958;6.770;2022-12-08T05:16:12;4.80;99.90
2647;DHT22;1333;50.958;6.770;2022-12-08T05:18:39;4.80;99.90
2647;DHT22;1333;50.958;6.770;2022-12-08T05:21:05;4.90;99.90
2647;DHT22;1333;50.958;6.770;2022-12-08T05:23:31;4.90;99.90
2647;DHT22;1333;50.958;6.770;2022-12-08T05:25:57;4.90;99.90
2647;DHT22;1333;50.958;6.770;2022-12-08T05:28:23;4.90;99.90
2647;DHT22;1333;50.958;6.770;2022-12-08T05:30:49;4.90;99.90
2647;DHT22;1333;50.958;6.770;2022-12-08T05:33:14;4.80;99.90
2647;DHT22;1333;50.958;6.770;2022-12-08T05:35:40;4.80;99.90
2647;DHT22;1333;50.958;6.770;2022-12-08T05:38:06;4.80;99.90
2647;DHT22;1333;50.958;6.770;2022-12-08T05:40:31;4.80;99.90
2647;DHT22;1333;50.958;6.770;2022-12-08T05:42:58;4.70;99.90
2647;DHT22;1333;50.958;6.770;2022-12-08T05:45:23;4.70;99.90
2647;DHT22;1333;50.958;6.770;2022-12-08T05:47:49;4.70;99.90
2647;DHT22;1333;50.958;6.770;2022-12-08T05:50:16;4.80;99.90
2647;DHT22;1333;50.958;6.770;2022-12-08T05:52:42;4.80;99.90
2647;DHT22;1333;50.958;6.770;2022-12-08T05:55:08;4.80;99.90
2647;DHT22;1333;50.958;6.770;2022-12-08T05:57:33;4.80;99.90
2647;DHT22;1333;50.958;6.770;2022-12-08T05:59:59;4.80;99.90
2647;DHT22;1333;50.958;6.770;2022-12-08T06:02:25;4.80;99.90
2647;DHT22;1333;50.958;6.770;2022-12-08T06:04:51;4.90;99.90
2647;DHT22;1333;50.958;6.770;2022-12-08T06:07:16;4.90;99.90
2647;DHT22;1333;50.958;6.770;2022-12-08T06:09:42;4.90;99.90
2647;DHT22;1333;50.958;6.770;2022-12-08T06:12:08;4.90;99.90
2647;DHT22;1333;50.958;6.770;2022-12-08T06:14:37;4.90;99.90
2647;DHT22;1333;50.958;6.770;2022-12-08T06:17:03;4.90;99.90
2647;DHT22;1333;50.958;6.770;2022-12-08T06:19:28;4.90;99.90
2647;DHT22;1333;50.958;6.770;2022-12-08T06:21:54;4.90;99.90
2647;DHT22;1333;50.958;6.770;2022-12-08T06:24:19;4.90;99.90
2647;DHT22;1333;50.958;6.770;2022-12-08T06:26:45;4.90;99.90
2647;DHT22;1333;50.958;6.770;2022-12-08T06:29:11;4.90;99.90
2647;DHT22;1333;50.958;6.770;2022-12-08T06:31:37;4.90;99.90
2647;DHT22;1333;50.958;6.770;2022-12-08T06:34:03;4.90;99.90
2647;DHT22;1333;50.958;6.770;2022-12-08T06:36:29;4.90;99.90
2647;DHT22;1333;50.958;6.770;2022-12-08T06:38:55;4.90;99.90
2647;DHT22;1333;50.958;6.770;2022-12-08T06:41:21;4.90;99.90
2647;DHT22;1333;50.958;6.770;2022-12-08T06:43:46;4.90;99.90
2647;DHT22;1333;50.958;6.770;2022-12-08T06:46:14;4.90;99.90
2647;DHT22;1333;50.958;6.770;2022-12-08T06:48:40;5.00;99.90
2647;DHT22;1333;50.958;6.770;2022-12-08T06:51:14;5.00;99.90
2647;DHT22;1333;50.958;6.770;2022-12-08T06:53:41;5.00;99.90
2647;DHT22;1333;50.958;6.770;2022-12-08T06:56:07;4.90;99.90
2647;DHT22;1333;50.958;6.770;2022-12-08T06:58:33;4.90;99.90
2647;DHT22;1333;50.958;6.770;2022-12-08T07:01:07;4.90;99.90
2647;DHT22;1333;50.958;6.770;2022-12-08T07:03:34;4.90;99.90
2647;DHT22;1333;50.958;6.770;2022-12-08T07:05:59;4.90;99.90
2647;DHT22;1333;50.958;6.770;2022-12-08T07:08:25;4.90;99.90
2647;DHT22;1333;50.958;6.770;2022-12-08T07:10:50;4.90;99.90
2647;DHT22;1333;50.958;6.770;2022-12-08T07:13:16;4.90;99.90
2647;DHT22;1333;50.958;6.770;2022-12-08T07:15:42;4.90;99.90
2647;DHT22;1333;50.958;6.770;2022-12-08T07:18:07;4.90;99.90
2647;DHT22;1333;50.958;6.770;2022-12-08T07:20:33;4.90;99.90
2647;DHT22;1333;50.958;6.770;2022-12-08T07:22:58;4.90;99.90
2647;DHT22;1333;50.958;6.770;2022-12-08T07:25:24;4.90;99.90
2647;DHT22;1333;50.958;6.770;2022-12-08T07:27:49;4.90;99.90
2647;DHT22;1333;50.958;6.770;2022-12-08T07:30:16;4.90;99.90
2647;DHT22;1333;50.958;6.770;2022-12-08T07:32:42;4.90;99.90
2647;DHT22;1333;50.958;6.770;2022-12-08T07:35:08;4.90;99.90
2647;DHT22;1333;50.958;6.770;2022-12-08T07:37:35;4.90;99.90
2647;DHT22;1333;50.958;6.770;2022-12-08T07:40:03;4.90;99.90
2647;DHT22;1333;50.958;6.770;2022-12-08T07:42:28;4.80;99.90
2647;DHT22;1333;50.958;6.770;2022-12-08T07:44:54;4.80;99.90
2647;DHT22;1333;50.958;6.770;2022-12-08T07:47:19;4.70;99.90
2647;DHT22;1333;50.958;6.770;2022-12-08T07:49:45;4.70;99.90
2647;DHT22;1333;50.958;6.770;2022-12-08T07:52:10;4.60;99.90
2647;DHT22;1333;50.958;6.770;2022-12-08T07:54:36;4.60;99.90
2647;DHT22;1333;50.958;6.770;2022-12-08T07:57:01;4.70;99.90
2647;DHT22;1333;50.958;6.770;2022-12-08T07:59:28;4.70;99.90
2647;DHT22;1333;50.958;6.770;2022-12-08T08:01:53;4.70;99.90
2647;DHT22;1333;50.958;6.770;2022-12-08T08:04:19;4.60;99.90
2647;DHT22;1333;50.958;6.770;2022-12-08T08:06:45;4.60;99.90
2647;DHT22;1333;50.958;6.770;2022-12-08T08:09:10;4.50;99.90
2647;DHT22;1333;50.958;6.770;2022-12-08T08:11:36;4.50;99.90
2647;DHT22;1333;50.958;6.770;2022-12-08T08:14:01;4.50;99.90
2647;DHT22;1333;50.958;6.770;2022-12-08T08:16:27;4.50;99.90
2647;DHT22;1333;50.958;6.770;2022-12-08T08:18:53;4.60;99.90
2647;DHT22;1333;50.958;6.770;2022-12-08T08:21:19;4.60;99.90
2647;DHT22;1333;50.958;6.770;2022-12-08T08:23:45;4.70;99.90
2647;DHT22;1333;50.958;6.770;2022-12-08T08:26:11;4.70;99.90
2647;DHT22;1333;50.958;6.770;2022-12-08T08:28:36;4.60;99.90
2647;DHT22;1333;50.958;6.770;2022-12-08T08:31:02;4.60;99.90
2647;DHT22;1333;50.958;6.770;2022-12-08T08:33:28;4.60;99.90
2647;DHT22;1333;50.958;6.770;2022-12-08T08:35:54;4.60;99.90
2647;DHT22;1333;50.958;6.770;2022-12-08T08:38:20;4.60;99.90
2647;DHT22;1333;50.958;6.770;2022-12-08T08:40:45;4.60;99.90
2647;DHT22;1333;50.958;6.770;2022-12-08T08:43:11;4.50;99.90
2647;DHT22;1333;50.958;6.770;2022-12-08T08:45:59;4.50;99.90
2647;DHT22;1333;50.958;6.770;2022-12-08T08:48:26;4.50;99.90
2647;DHT22;1333;50.958;6.770;2022-12-08T08:50:51;4.50;99.90
2647;DHT22;1333;50.958;6.770;2022-12-08T08:53:17;4.40;99.90
2647;DHT22;1333;50.958;6.770;2022-12-08T08:55:43;4.50;99.90
2647;DHT22;1333;50.958;6.770;2022-12-08T08:58:08;4.50;99.90
2647;DHT22;1333;50.958;6.770;2022-12-08T09:00:34;4.50;99.90
2647;DHT22;1333;50.958;6.770;2022-12-08T09:02:59;4.50;99.90
2647;DHT22;1333;50.958;6.770;2022-12-08T09:05:25;4.50;99.90
2647;DHT22;1333;50.958;6.770;2022-12-08T09:07:50;4.50;99.90
2647;DHT22;1333;50.958;6.770;2022-12-08T09:10:16;4.60;99.90
2647;DHT22;1333;50.958;6.770;2022-12-08T09:12:41;4.60;99.90
2647;DHT22;1333;50.958;6.770;2022-12-08T09:15:07;4.50;99.90
2647;DHT22;1333;50.958;6.770;2022-12-08T09:17:33;4.60;99.90
2647;DHT22;1333;50.958;6.770;2022-12-08T09:19:58;4.60;99.90
2647;DHT22;1333;50.958;6.770;2022-12-08T09:22:25;4.60;99.90
2647;DHT22;1333;50.958;6.770;2022-12-08T09:24:51;4.60;99.90
2647;DHT22;1333;50.958;6.770;2022-12-08T09:27:16;4.60;99.90
2647;DHT22;1333;50.958;6.770;2022-12-08T09:29:42;4.60;99.90
2647;DHT22;1333;50.958;6.770;2022-12-08T09:32:07;4.70;99.90
2647;DHT22;1333;50.958;6.770;2022-12-08T09:34:33;4.70;99.90
2647;DHT22;1333;50.958;6.770;2022-12-08T09:36:58;4.70;99.90
2647;DHT22;1333;50.958;6.770;2022-12-08T09:39:24;4.80;99.90
2647;DHT22;1333;50.958;6.770;2022-12-08T09:42:00;4.80;99.90
2647;DHT22;1333;50.958;6.770;2022-12-08T09:44:54;4.80;99.90
2647;DHT22;1333;50.958;6.770;2022-12-08T09:50:13;4.70;99.90
2647;DHT22;1333;50.958;6.770;2022-12-08T09:52:54;4.70;99.90
2647;DHT22;1333;50.958;6.770;2022-12-08T09:55:31;4.70;99.90
2647;DHT22;1333;50.958;6.770;2022-12-08T09:58:01;4.70;99.90
2647;DHT22;1333;50.958;6.770;2022-12-08T10:00:27;4.60;99.90
2647;DHT22;1333;50.958;6.770;2022-12-08T10:02:54;4.70;99.90
2647;DHT22;1333;50.958;6.770;2022-12-08T10:05:19;4.70;99.90
2647;DHT22;1333;50.958;6.770;2022-12-08T10:08:00;4.70;99.90
2647;DHT22;1333;50.958;6.770;2022-12-08T10:10:47;4.80;99.90
2647;DHT22;1333;50.958;6.770;2022-12-08T10:16:16;4.90;99.90
2647;DHT22;1333;50.958;6.770;2022-12-08T10:18:46;4.90;99.90
2647;DHT22;1333;50.958;6.770;2022-12-08T10:21:19;4.90;99.90
2647;DHT22;1333;50.958;6.770;2022-12-08T10:24:04;4.90;99.90
2647;DHT22;1333;50.958;6.770;2022-12-08T10:26:32;4.90;99.90
2647;DHT22;1333;50.958;6.770;2022-12-08T10:29:00;4.90;99.90
2647;DHT22;1333;50.958;6.770;2022-12-08T10:31:28;4.90;99.90
2647;DHT22;1333;50.958;6.770;2022-12-08T10:34:13;5.00;99.90
2647;DHT22;1333;50.958;6.770;2022-12-08T10:36:51;5.00;99.90
2647;DHT22;1333;50.958;6.770;2022-12-08T10:42:15;5.10;99.90
2647;DHT22;1333;50.958;6.770;2022-12-08T10:44:54;5.10;99.90
2647;DHT22;1333;50.958;6.770;2022-12-08T10:47:24;5.20;99.90
2647;DHT22;1333;50.958;6.770;2022-12-08T10:52:31;5.10;99.90
2647;DHT22;1333;50.958;6.770;2022-12-08T10:54:59;5.10;99.90
2647;DHT22;1333;50.958;6.770;2022-12-08T10:57:24;5.10;99.90
2647;DHT22;1333;50.958;6.770;2022-12-08T10:59:53;5.10;99.90
2647;DHT22;1333;50.958;6.770;2022-12-08T11:02:19;5.10;99.90
2647;DHT22;1333;50.958;6.770;2022-12-08T11:04:45;5.00;99.90
2647;DHT22;1333;50.958;6.770;2022-12-08T11:07:19;5.00;99.90
2647;DHT22;1333;50.958;6.770;2022-12-08T11:09:47;5.10;99.90
2647;DHT22;1333;50.958;6.770;2022-12-08T11:12:16;5.10;99.90
2647;DHT22;1333;50.958;6.770;2022-12-08T11:17:11;5.20;99.90
2647;DHT22;1333;50.958;6.770;2022-12-08T11:19:40;5.20;99.90
2647;DHT22;1333;50.958;6.770;2022-12-08T11:27:27;5.30;99.90
2647;DHT22;1333;50.958;6.770;2022-12-08T11:29:53;5.40;99.90
2647;DHT22;1333;50.958;6.770;2022-12-08T11:32:19;5.40;99.90
2647;DHT22;1333;50.958;6.770;2022-12-08T11:34:54;5.40;99.90
2647;DHT22;1333;50.958;6.770;2022-12-08T11:37:34;5.40;99.90
2647;DHT22;1333;50.958;6.770;2022-12-08T11:40:16;5.50;99.90
2647;DHT22;1333;50.958;6.770;2022-12-08T11:43:20;5.60;99.90
2647;DHT22;1333;50.958;6.770;2022-12-08T11:46:04;5.70;99.90
2647;DHT22;1333;50.958;6.770;2022-12-08T11:48:45;5.80;99.90
2647;DHT22;1333;50.958;6.770;2022-12-08T11:51:17;6.00;99.90
2647;DHT22;1333;50.958;6.770;2022-12-08T11:56:20;6.20;99.90
2647;DHT22;1333;50.958;6.770;2022-12-08T11:58:56;6.20;99.90
2647;DHT22;1333;50.958;6.770;2022-12-08T12:01:24;6.30;99.90
2647;DHT22;1333;50.958;6.770;2022-12-08T12:04:45;6.40;99.90
2647;DHT22;1333;50.958;6.770;2022-12-08T12:07:08;6.40;99.90
2647;DHT22;1333;50.958;6.770;2022-12-08T12:13:35;6.40;99.90
2647;DHT22;1333;50.958;6.770;2022-12-08T12:18:50;6.30;99.90
2647;DHT22;1333;50.958;6.770;2022-12-08T12:21:18;6.20;99.90
2647;DHT22;1333;50.958;6.770;2022-12-08T12:23:52;6.10;99.90
2647;DHT22;1333;50.958;6.770;2022-12-08T12:26:29;6.10;99.90
2647;DHT22;1333;50.958;6.770;2022-12-08T12:29:05;6.10;99.90
2647;DHT22;1333;50.958;6.770;2022-12-08T12:31:38;6.10;99.90
2647;DHT22;1333;50.958;6.770;2022-12-08T12:34:31;6.00;99.90
2647;DHT22;1333;50.958;6.770;2022-12-08T12:37:10;6.00;99.90
2647;DHT22;1333;50.958;6.770;2022-12-08T12:39:59;6.20;99.90
2647;DHT22;1333;50.958;6.770;2022-12-08T12:42:37;6.20;99.90
2647;DHT22;1333;50.958;6.770;2022-12-08T12:45:30;6.20;99.90
2647;DHT22;1333;50.958;6.770;2022-12-08T12:56:01;6.70;99.90
2647;DHT22;1333;50.958;6.770;2022-12-08T13:03:40;6.90;99.90
2647;DHT22;1333;50.958;6.770;2022-12-08T13:06:07;6.90;99.90
2647;DHT22;1333;50.958;6.770;2022-12-08T13:08:48;7.00;99.90
2647;DHT22;1333;50.958;6.770;2022-12-08T13:11:14;7.00;99.90
2647;DHT22;1333;50.958;6.770;2022-12-08T13:14:00;7.20;99.90
2647;DHT22;1333;50.958;6.770;2022-12-08T13:16:30;7.20;99.90
2647;DHT22;1333;50.958;6.770;2022-12-08T13:18:58;7.10;99.90
2647;DHT22;1333;50.958;6.770;2022-12-08T13:21:33;7.20;99.90
2647;DHT22;1333;50.958;6.770;2022-12-08T13:24:27;7.10;99.90
2647;DHT22;1333;50.958;6.770;2022-12-08T13:29:27;7.00;99.90
2647;DHT22;1333;50.958;6.770;2022-12-08T13:31:54;7.00;99.90
2647;DHT22;1333;50.958;6.770;2022-12-08T13:34:44;6.90;99.90
2647;DHT22;1333;50.958;6.770;2022-12-08T13:40:05;6.70;99.90
2647;DHT22;1333;50.958;6.770;2022-12-08T13:45:20;6.60;99.90
2647;DHT22;1333;50.958;6.770;2022-12-08T13:48:19;6.60;99.90
2647;DHT22;1333;50.958;6.770;2022-12-08T13:51:18;6.50;99.90
2647;DHT22;1333;50.958;6.770;2022-12-08T13:54:51;6.50;99.90
2647;DHT22;1333;50.958;6.770;2022-12-08T13:56:52;6.30;99.90
2647;DHT22;1333;50.958;6.770;2022-12-08T14:01:46;6.20;99.90
2647;DHT22;1333;50.958;6.770;2022-12-08T14:04:15;6.20;99.90
2647;DHT22;1333;50.958;6.770;2022-12-08T14:06:46;6.20;99.90
2647;DHT22;1333;50.958;6.770;2022-12-08T14:09:21;6.10;99.90
2647;DHT22;1333;50.958;6.770;2022-12-08T14:11:53;6.10;99.90
2647;DHT22;1333;50.958;6.770;2022-12-08T14:14:38;6.10;99.90
2647;DHT22;1333;50.958;6.770;2022-12-08T14:17:10;6.10;99.90
2647;DHT22;1333;50.958;6.770;2022-12-08T14:19:36;6.20;99.90
2647;DHT22;1333;50.958;6.770;2022-12-08T14:22:11;6.20;99.90
2647;DHT22;1333;50.958;6.770;2022-12-08T14:24:37;6.20;99.90
2647;DHT22;1333;50.958;6.770;2022-12-08T14:27:06;6.10;99.90
2647;DHT22;1333;50.958;6.770;2022-12-08T14:32:18;6.00;99.90
2647;DHT22;1333;50.958;6.770;2022-12-08T14:34:44;6.00;99.90
2647;DHT22;1333;50.958;6.770;2022-12-08T14:37:13;5.90;99.90
2647;DHT22;1333;50.958;6.770;2022-12-08T14:39:39;5.90;99.90
2647;DHT22;1333;50.958;6.770;2022-12-08T14:42:05;5.90;99.90
2647;DHT22;1333;50.958;6.770;2022-12-08T14:44:34;5.90;99.90
2647;DHT22;1333;50.958;6.770;2022-12-08T14:47:07;5.80;99.90
2647;DHT22;1333;50.958;6.770;2022-12-08T14:49:38;5.80;99.90
2647;DHT22;1333;50.958;6.770;2022-12-08T14:52:10;5.70;99.90
2647;DHT22;1333;50.958;6.770;2022-12-08T14:54:37;5.70;99.90
2647;DHT22;1333;50.958;6.770;2022-12-08T14:57:04;5.70;99.90
2647;DHT22;1333;50.958;6.770;2022-12-08T14:59:33;5.60;99.90
2647;DHT22;1333;50.958;6.770;2022-12-08T15:02:24;5.70;99.90
2647;DHT22;1333;50.958;6.770;2022-12-08T15:05:03;5.70;99.90
2647;DHT22;1333;50.958;6.770;2022-12-08T15:10:30;5.60;99.90
2647;DHT22;1333;50.958;6.770;2022-12-08T15:12:59;5.60;99.90
2647;DHT22;1333;50.958;6.770;2022-12-08T15:15:25;5.60;99.90
2647;DHT22;1333;50.958;6.770;2022-12-08T15:18:15;5.50;99.90
2647;DHT22;1333;50.958;6.770;2022-12-08T15:23:31;5.50;99.90
2647;DHT22;1333;50.958;6.770;2022-12-08T15:25:59;5.40;99.90
2647;DHT22;1333;50.958;6.770;2022-12-08T15:28:26;5.40;99.90
2647;DHT22;1333;50.958;6.770;2022-12-08T15:30:53;5.40;99.90
2647;DHT22;1333;50.958;6.770;2022-12-08T15:33:18;5.30;99.90
2647;DHT22;1333;50.958;6.770;2022-12-08T15:35:45;5.20;99.90
2647;DHT22;1333;50.958;6.770;2022-12-08T15:38:30;5.20;99.90
2647;DHT22;1333;50.958;6.770;2022-12-08T15:40:56;5.10;99.90
2647;DHT22;1333;50.958;6.770;2022-12-08T15:43:25;5.00;99.90
2647;DHT22;1333;50.958;6.770;2022-12-08T15:45:53;4.90;99.90
2647;DHT22;1333;50.958;6.770;2022-12-08T15:48:24;4.90;99.90
2647;DHT22;1333;50.958;6.770;2022-12-08T15:50:51;4.80;99.90
2647;DHT22;1333;50.958;6.770;2022-12-08T15:53:17;4.70;99.90
2647;DHT22;1333;50.958;6.770;2022-12-08T15:55:43;4.70;99.90
2647;DHT22;1333;50.958;6.770;2022-12-08T15:58:23;4.60;99.90
2647;DHT22;1333;50.958;6.770;2022-12-08T16:00:50;4.60;99.90
2647;DHT22;1333;50.958;6.770;2022-12-08T16:03:22;4.50;99.90
2647;DHT22;1333;50.958;6.770;2022-12-08T16:05:47;4.50;99.90
2647;DHT22;1333;50.958;6.770;2022-12-08T16:08:14;4.50;99.90
2647;DHT22;1333;50.958;6.770;2022-12-08T16:10:40;4.50;99.90
2647;DHT22;1333;50.958;6.770;2022-12-08T16:13:15;4.40;99.90
2647;DHT22;1333;50.958;6.770;2022-12-08T16:16:00;4.40;99.90
2647;DHT22;1333;50.958;6.770;2022-12-08T16:18:29;4.30;99.90
2647;DHT22;1333;50.958;6.770;2022-12-08T16:20:55;4.30;99.90
2647;DHT22;1333;50.958;6.770;2022-12-08T16:23:21;4.20;99.90
2647;DHT22;1333;50.958;6.770;2022-12-08T16:25:46;4.20;99.90
2647;DHT22;1333;50.958;6.770;2022-12-08T16:28:12;4.10;99.90
2647;DHT22;1333;50.958;6.770;2022-12-08T16:30:37;4.00;99.90
2647;DHT22;1333;50.958;6.770;2022-12-08T16:33:03;3.90;99.90
2647;DHT22;1333;50.958;6.770;2022-12-08T16:35:29;3.90;99.90
2647;DHT22;1333;50.958;6.770;2022-12-08T16:37:54;3.80;99.90
2647;DHT22;1333;50.958;6.770;2022-12-08T16:40:20;3.80;99.90
2647;DHT22;1333;50.958;6.770;2022-12-08T16:42:46;3.80;99.90
2647;DHT22;1333;50.958;6.770;2022-12-08T16:45:26;3.80;99.90
2647;DHT22;1333;50.958;6.770;2022-12-08T16:47:57;3.80;99.90
2647;DHT22;1333;50.958;6.770;2022-12-08T16:50:28;3.70;99.90
2647;DHT22;1333;50.958;6.770;2022-12-08T16:52:56;3.70;99.90
2647;DHT22;1333;50.958;6.770;2022-12-08T16:55:22;3.70;99.90
2647;DHT22;1333;50.958;6.770;2022-12-08T16:57:48;3.70;99.90
2647;DHT22;1333;50.958;6.770;2022-12-08T17:00:19;3.70;99.90
2647;DHT22;1333;50.958;6.770;2022-12-08T17:02:45;3.70;99.90
2647;DHT22;1333;50.958;6.770;2022-12-08T17:05:15;3.70;99.90
2647;DHT22;1333;50.958;6.770;2022-12-08T17:07:42;3.70;99.90
2647;DHT22;1333;50.958;6.770;2022-12-08T17:10:09;3.70;99.90
2647;DHT22;1333;50.958;6.770;2022-12-08T17:12:35;3.70;99.90
2647;DHT22;1333;50.958;6.770;2022-12-08T17:15:05;3.70;99.90
2647;DHT22;1333;50.958;6.770;2022-12-08T17:17:32;3.60;99.90
2647;DHT22;1333;50.958;6.770;2022-12-08T17:20:00;3.60;99.90
2647;DHT22;1333;50.958;6.770;2022-12-08T17:22:29;3.60;99.90
2647;DHT22;1333;50.958;6.770;2022-12-08T17:24:54;3.50;99.90
2647;DHT22;1333;50.958;6.770;2022-12-08T17:27:20;3.50;99.90
2647;DHT22;1333;50.958;6.770;2022-12-08T17:29:45;3.50;99.90
2647;DHT22;1333;50.958;6.770;2022-12-08T17:32:11;3.50;99.90
2647;DHT22;1333;50.958;6.770;2022-12-08T17:34:36;3.40;99.90
2647;DHT22;1333;50.958;6.770;2022-12-08T17:37:02;3.50;99.90
2647;DHT22;1333;50.958;6.770;2022-12-08T17:39:27;3.50;99.90
2647;DHT22;1333;50.958;6.770;2022-12-08T17:41:53;3.50;99.90
2647;DHT22;1333;50.958;6.770;2022-12-08T17:44:18;3.50;99.90
2647;DHT22;1333;50.958;6.770;2022-12-08T17:46:44;3.50;99.90
2647;DHT22;1333;50.958;6.770;2022-12-08T17:49:14;3.50;99.90
2647;DHT22;1333;50.958;6.770;2022-12-08T17:51:40;3.50;99.90
2647;DHT22;1333;50.958;6.770;2022-12-08T17:54:06;3.40;99.90
2647;DHT22;1333;50.958;6.770;2022-12-08T17:56:31;3.40;99.90
2647;DHT22;1333;50.958;6.770;2022-12-08T17:58:57;3.40;99.90
2647;DHT22;1333;50.958;6.770;2022-12-08T18:01:23;3.30;99.90
2647;DHT22;1333;50.958;6.770;2022-12-08T18:03:49;3.30;99.90
2647;DHT22;1333;50.958;6.770;2022-12-08T18:06:15;3.20;99.90
2647;DHT22;1333;50.958;6.770;2022-12-08T18:08:42;3.20;99.90
2647;DHT22;1333;50.958;6.770;2022-12-08T18:11:18;3.10;99.90